sensor_id;sensor_type;location;lat;lon;timestamp;P1;durP1;ratioP1;P2;durP2;ratioP2
9838;SDS011;4958;48.150;11.506;2022-10-16T00:02:17;2.08;;;1.80;;
9838;SDS011;4958;48.150;11.506;2022-10-16T00:04:44;1.95;;;1.85;;
9838;SDS011;4958;48.150;11.506;2022-10-16T00:07:10;3.10;;;2.20;;
9838;SDS011;4958;48.150;11.506;2022-10-16T00:09:36;3.38;;;2.10;;
9838;SDS011;4958;48.150;11.506;2022-10-16T00:12:04;6.78;;;2.00;;
9838;SDS011;4958;48.150;11.506;2022-10-16T00:14:31;2.30;;;1.80;;
9838;SDS011;4958;48.150;11.506;2022-10-16T00:16:58;3.35;;;1.90;;
9838;SDS011;4958;48.150;11.506;2022-10-16T00:19:24;2.13;;;1.70;;
9838;SDS011;4958;48.150;11.506;2022-10-16T00:21:51;4.70;;;1.90;;
9838;SDS011;4958;48.150;11.506;2022-10-16T00:24:17;2.22;;;1.80;;
9838;SDS011;4958;48.150;11.506;2022-10-16T00:26:44;2.40;;;1.80;;
9838;SDS011;4958;48.150;11.506;2022-10-16T00:29:11;2.17;;;1.77;;
9838;SDS011;4958;48.150;11.506;2022-10-16T00:31:38;2.90;;;1.70;;
9838;SDS011;4958;48.150;11.506;2022-10-16T00:34:04;3.42;;;1.73;;
9838;SDS011;4958;48.150;11.506;2022-10-16T00:36:31;2.20;;;1.95;;
9838;SDS011;4958;48.150;11.506;2022-10-16T00:38:57;1.45;;;1.30;;
9838;SDS011;4958;48.150;11.506;2022-10-16T00:41:26;1.85;;;1.70;;
9838;SDS011;4958;48.150;11.506;2022-10-16T00:43:54;1.52;;;1.40;;
9838;SDS011;4958;48.150;11.506;2022-10-16T00:46:23;3.40;;;1.50;;
9838;SDS011;4958;48.150;11.506;2022-10-16T00:48:55;1.83;;;1.30;;
9838;SDS011;4958;48.150;11.506;2022-10-16T00:51:27;2.45;;;1.33;;
9838;SDS011;4958;48.150;11.506;2022-10-16T00:53:57;1.70;;;1.50;;
9838;SDS011;4958;48.150;11.506;2022-10-16T00:56:25;1.45;;;1.30;;
9838;SDS011;4958;48.150;11.506;2022-10-16T00:58:51;1.60;;;1.50;;
9838;SDS011;4958;48.150;11.506;2022-10-16T01:01:18;1.73;;;1.63;;
9838;SDS011;4958;48.150;11.506;2022-10-16T01:03:46;3.47;;;1.48;;
9838;SDS011;4958;48.150;11.506;2022-10-16T01:06:18;4.32;;;1.67;;
9838;SDS011;4958;48.150;11.506;2022-10-16T01:08:53;1.65;;;1.30;;
9838;SDS011;4958;48.150;11.506;2022-10-16T01:11:27;1.50;;;1.40;;
9838;SDS011;4958;48.150;11.506;2022-10-16T01:14:00;3.30;;;1.75;;
9838;SDS011;4958;48.150;11.506;2022-10-16T01:16:33;1.88;;;1.35;;
9838;SDS011;4958;48.150;11.506;2022-10-16T01:19:08;1.95;;;1.40;;
9838;SDS011;4958;48.150;11.506;2022-10-16T01:21:39;2.42;;;1.30;;
9838;SDS011;4958;48.150;11.506;2022-10-16T01:24:09;2.60;;;1.30;;
9838;SDS011;4958;48.150;11.506;2022-10-16T01:27:03;3.65;;;1.30;;
9838;SDS011;4958;48.150;11.506;2022-10-16T01:29:36;2.65;;;1.45;;
9838;SDS011;4958;48.150;11.506;2022-10-16T01:32:09;3.15;;;1.60;;
9838;SDS011;4958;48.150;11.506;2022-10-16T01:34:42;5.15;;;1.85;;
9838;SDS011;4958;48.150;11.506;2022-10-16T01:37:14;1.50;;;1.40;;
9838;SDS011;4958;48.150;11.506;2022-10-16T01:39:47;3.65;;;1.40;;
9838;SDS011;4958;48.150;11.506;2022-10-16T01:42:18;3.70;;;1.30;;
9838;SDS011;4958;48.150;11.506;2022-10-16T01:44:48;2.30;;;1.50;;
9838;SDS011;4958;48.150;11.506;2022-10-16T01:47:17;4.28;;;1.52;;
9838;SDS011;4958;48.150;11.506;2022-10-16T01:49:48;3.08;;;1.20;;
9838;SDS011;4958;48.150;11.506;2022-10-16T01:52:17;1.30;;;1.20;;
9838;SDS011;4958;48.150;11.506;2022-10-16T01:54:47;1.15;;;1.10;;
9838;SDS011;4958;48.150;11.506;2022-10-16T01:57:19;1.40;;;1.30;;
9838;SDS011;4958;48.150;11.506;2022-10-16T01:59:50;3.28;;;1.30;;
9838;SDS011;4958;48.150;11.506;2022-10-16T02:02:21;2.58;;;1.30;;
9838;SDS011;4958;48.150;11.506;2022-10-16T02:04:49;1.30;;;1.20;;
9838;SDS011;4958;48.150;11.506;2022-10-16T02:07:19;3.35;;;1.40;;
9838;SDS011;4958;48.150;11.506;2022-10-16T02:09:45;2.97;;;1.75;;
9838;SDS011;4958;48.150;11.506;2022-10-16T02:12:14;1.63;;;1.33;;
9838;SDS011;4958;48.150;11.506;2022-10-16T02:14:45;1.50;;;1.17;;
9838;SDS011;4958;48.150;11.506;2022-10-16T02:17:12;2.92;;;1.58;;
9838;SDS011;4958;48.150;11.506;2022-10-16T02:19:41;2.53;;;1.42;;
9838;SDS011;4958;48.150;11.506;2022-10-16T02:22:09;1.60;;;1.30;;
9838;SDS011;4958;48.150;11.506;2022-10-16T02:24:43;1.35;;;1.25;;
9838;SDS011;4958;48.150;11.506;2022-10-16T02:27:17;1.30;;;1.20;;
9838;SDS011;4958;48.150;11.506;2022-10-16T02:29:52;2.13;;;1.40;;
9838;SDS011;4958;48.150;11.506;2022-10-16T02:32:24;1.98;;;1.50;;
9838;SDS011;4958;48.150;11.506;2022-10-16T02:34:55;4.15;;;1.67;;
9838;SDS011;4958;48.150;11.506;2022-10-16T02:37:23;2.75;;;1.25;;
9838;SDS011;4958;48.150;11.506;2022-10-16T02:39:51;1.45;;;1.23;;
9838;SDS011;4958;48.150;11.506;2022-10-16T02:42:19;1.75;;;1.30;;
9838;SDS011;4958;48.150;11.506;2022-10-16T02:44:46;2.63;;;1.48;;
9838;SDS011;4958;48.150;11.506;2022-10-16T02:47:13;1.98;;;1.40;;
9838;SDS011;4958;48.150;11.506;2022-10-16T02:49:40;1.50;;;1.40;;
9838;SDS011;4958;48.150;11.506;2022-10-16T02:52:06;1.30;;;1.20;;
9838;SDS011;4958;48.150;11.506;2022-10-16T02:54:33;1.30;;;1.20;;
9838;SDS011;4958;48.150;11.506;2022-10-16T02:56:59;1.45;;;1.33;;
9838;SDS011;4958;48.150;11.506;2022-10-16T02:59:26;1.40;;;1.20;;
9838;SDS011;4958;48.150;11.506;2022-10-16T03:01:52;2.10;;;1.38;;
9838;SDS011;4958;48.150;11.506;2022-10-16T03:04:20;3.08;;;1.30;;
9838;SDS011;4958;48.150;11.506;2022-10-16T03:06:46;2.90;;;1.38;;
9838;SDS011;4958;48.150;11.506;2022-10-16T03:09:13;1.25;;;1.15;;
9838;SDS011;4958;48.150;11.506;2022-10-16T03:11:39;1.02;;;1.02;;
9838;SDS011;4958;48.150;11.506;2022-10-16T03:14:06;1.20;;;1.10;;
9838;SDS011;4958;48.150;11.506;2022-10-16T03:16:32;1.60;;;1.13;;
9838;SDS011;4958;48.150;11.506;2022-10-16T03:18:59;3.53;;;1.33;;
9838;SDS011;4958;48.150;11.506;2022-10-16T03:21:27;1.15;;;1.00;;
9838;SDS011;4958;48.150;11.506;2022-10-16T03:23:53;1.30;;;1.20;;
9838;SDS011;4958;48.150;11.506;2022-10-16T03:26:20;1.45;;;1.20;;
9838;SDS011;4958;48.150;11.506;2022-10-16T03:28:46;1.30;;;1.20;;
9838;SDS011;4958;48.150;11.506;2022-10-16T03:31:12;3.03;;;1.30;;
9838;SDS011;4958;48.150;11.506;2022-10-16T03:33:39;1.30;;;1.20;;
9838;SDS011;4958;48.150;11.506;2022-10-16T03:36:05;3.08;;;1.23;;
9838;SDS011;4958;48.150;11.506;2022-10-16T03:38:34;2.05;;;1.67;;
9838;SDS011;4958;48.150;11.506;2022-10-16T03:41:00;2.05;;;1.35;;
9838;SDS011;4958;48.150;11.506;2022-10-16T03:43:27;2.75;;;1.20;;
9838;SDS011;4958;48.150;11.506;2022-10-16T03:45:53;1.92;;;1.20;;
9838;SDS011;4958;48.150;11.506;2022-10-16T03:48:19;2.83;;;1.30;;
9838;SDS011;4958;48.150;11.506;2022-10-16T03:50:46;1.63;;;1.52;;
9838;SDS011;4958;48.150;11.506;2022-10-16T03:53:13;5.47;;;1.73;;
9838;SDS011;4958;48.150;11.506;2022-10-16T03:55:42;3.08;;;1.30;;
9838;SDS011;4958;48.150;11.506;2022-10-16T03:58:09;2.20;;;1.27;;
9838;SDS011;4958;48.150;11.506;2022-10-16T04:00:36;1.15;;;1.10;;
9838;SDS011;4958;48.150;11.506;2022-10-16T04:03:06;2.55;;;1.48;;
9838;SDS011;4958;48.150;11.506;2022-10-16T04:05:32;2.30;;;1.40;;
9838;SDS011;4958;48.150;11.506;2022-10-16T04:07:59;2.63;;;1.40;;
9838;SDS011;4958;48.150;11.506;2022-10-16T04:10:25;2.22;;;1.48;;
9838;SDS011;4958;48.150;11.506;2022-10-16T04:12:54;1.23;;;1.13;;
9838;SDS011;4958;48.150;11.506;2022-10-16T04:15:20;1.90;;;1.50;;
9838;SDS011;4958;48.150;11.506;2022-10-16T04:17:47;1.50;;;1.40;;
9838;SDS011;4958;48.150;11.506;2022-10-16T04:20:14;1.83;;;1.13;;
9838;SDS011;4958;48.150;11.506;2022-10-16T04:22:40;2.08;;;1.20;;
9838;SDS011;4958;48.150;11.506;2022-10-16T04:25:07;1.27;;;1.17;;
9838;SDS011;4958;48.150;11.506;2022-10-16T04:27:34;1.80;;;1.20;;
9838;SDS011;4958;48.150;11.506;2022-10-16T04:30:02;1.33;;;1.23;;
9838;SDS011;4958;48.150;11.506;2022-10-16T04:32:28;1.30;;;1.20;;
9838;SDS011;4958;48.150;11.506;2022-10-16T04:34:55;4.15;;;1.50;;
9838;SDS011;4958;48.150;11.506;2022-10-16T04:37:23;2.75;;;1.52;;
9838;SDS011;4958;48.150;11.506;2022-10-16T04:39:50;1.80;;;1.35;;
9838;SDS011;4958;48.150;11.506;2022-10-16T04:42:16;1.70;;;1.30;;
9838;SDS011;4958;48.150;11.506;2022-10-16T04:44:43;4.47;;;1.38;;
9838;SDS011;4958;48.150;11.506;2022-10-16T04:47:10;3.28;;;1.65;;
9838;SDS011;4958;48.150;11.506;2022-10-16T04:49:37;1.35;;;1.25;;
9838;SDS011;4958;48.150;11.506;2022-10-16T04:52:04;2.50;;;1.38;;
9838;SDS011;4958;48.150;11.506;2022-10-16T04:54:30;1.42;;;1.33;;
9838;SDS011;4958;48.150;11.506;2022-10-16T04:56:57;1.67;;;1.50;;
9838;SDS011;4958;48.150;11.506;2022-10-16T04:59:23;1.63;;;1.52;;
9838;SDS011;4958;48.150;11.506;2022-10-16T05:01:50;2.53;;;1.58;;
9838;SDS011;4958;48.150;11.506;2022-10-16T05:04:18;1.88;;;1.42;;
9838;SDS011;4958;48.150;11.506;2022-10-16T05:06:44;1.40;;;1.30;;
9838;SDS011;4958;48.150;11.506;2022-10-16T05:09:11;1.25;;;1.20;;
9838;SDS011;4958;48.150;11.506;2022-10-16T05:11:37;2.05;;;1.40;;
9838;SDS011;4958;48.150;11.506;2022-10-16T05:14:04;1.50;;;1.40;;
9838;SDS011;4958;48.150;11.506;2022-10-16T05:16:30;1.63;;;1.52;;
9838;SDS011;4958;48.150;11.506;2022-10-16T05:18:57;1.52;;;1.33;;
9838;SDS011;4958;48.150;11.506;2022-10-16T05:21:24;3.03;;;1.33;;
9838;SDS011;4958;48.150;11.506;2022-10-16T05:23:52;1.50;;;1.40;;
9838;SDS011;4958;48.150;11.506;2022-10-16T05:26:20;1.38;;;1.27;;
9838;SDS011;4958;48.150;11.506;2022-10-16T05:28:46;1.70;;;1.40;;
9838;SDS011;4958;48.150;11.506;2022-10-16T05:31:13;1.60;;;1.50;;
9838;SDS011;4958;48.150;11.506;2022-10-16T05:33:39;2.75;;;1.88;;
9838;SDS011;4958;48.150;11.506;2022-10-16T05:36:07;3.15;;;1.55;;
9838;SDS011;4958;48.150;11.506;2022-10-16T05:38:37;2.50;;;1.45;;
9838;SDS011;4958;48.150;11.506;2022-10-16T05:41:04;1.90;;;1.55;;
9838;SDS011;4958;48.150;11.506;2022-10-16T05:43:31;3.85;;;1.50;;
9838;SDS011;4958;48.150;11.506;2022-10-16T05:45:58;1.88;;;1.77;;
9838;SDS011;4958;48.150;11.506;2022-10-16T05:48:26;2.30;;;1.60;;
9838;SDS011;4958;48.150;11.506;2022-10-16T05:50:56;3.13;;;1.65;;
9838;SDS011;4958;48.150;11.506;2022-10-16T05:53:24;3.33;;;1.73;;
9838;SDS011;4958;48.150;11.506;2022-10-16T05:55:53;2.08;;;1.70;;
9838;SDS011;4958;48.150;11.506;2022-10-16T05:58:20;2.13;;;1.48;;
9838;SDS011;4958;48.150;11.506;2022-10-16T06:00:52;1.85;;;1.63;;
9838;SDS011;4958;48.150;11.506;2022-10-16T06:03:19;2.47;;;1.65;;
9838;SDS011;4958;48.150;11.506;2022-10-16T06:05:46;1.95;;;1.70;;
9838;SDS011;4958;48.150;11.506;2022-10-16T06:08:12;1.88;;;1.75;;
9838;SDS011;4958;48.150;11.506;2022-10-16T06:10:38;2.53;;;1.55;;
9838;SDS011;4958;48.150;11.506;2022-10-16T06:13:06;1.85;;;1.60;;
9838;SDS011;4958;48.150;11.506;2022-10-16T06:15:33;1.90;;;1.80;;
9838;SDS011;4958;48.150;11.506;2022-10-16T06:17:59;2.17;;;1.70;;
9838;SDS011;4958;48.150;11.506;2022-10-16T06:20:26;2.08;;;1.70;;
9838;SDS011;4958;48.150;11.506;2022-10-16T06:22:52;1.60;;;1.50;;
9838;SDS011;4958;48.150;11.506;2022-10-16T06:25:19;1.80;;;1.60;;
9838;SDS011;4958;48.150;11.506;2022-10-16T06:27:45;6.38;;;2.20;;
9838;SDS011;4958;48.150;11.506;2022-10-16T06:30:13;3.65;;;2.03;;
9838;SDS011;4958;48.150;11.506;2022-10-16T06:32:39;2.33;;;1.80;;
9838;SDS011;4958;48.150;11.506;2022-10-16T06:35:06;3.33;;;1.70;;
9838;SDS011;4958;48.150;11.506;2022-10-16T06:37:33;3.45;;;1.70;;
9838;SDS011;4958;48.150;11.506;2022-10-16T06:40:00;4.45;;;1.67;;
9838;SDS011;4958;48.150;11.506;2022-10-16T06:42:29;3.42;;;2.00;;
9838;SDS011;4958;48.150;11.506;2022-10-16T06:44:55;4.53;;;1.77;;
9838;SDS011;4958;48.150;11.506;2022-10-16T06:47:23;2.10;;;1.80;;
9838;SDS011;4958;48.150;11.506;2022-10-16T06:49:50;1.98;;;1.80;;
9838;SDS011;4958;48.150;11.506;2022-10-16T06:52:16;3.80;;;1.83;;
9838;SDS011;4958;48.150;11.506;2022-10-16T06:54:43;4.53;;;2.17;;
9838;SDS011;4958;48.150;11.506;2022-10-16T06:57:09;2.70;;;1.77;;
9838;SDS011;4958;48.150;11.506;2022-10-16T06:59:36;1.70;;;1.60;;
9838;SDS011;4958;48.150;11.506;2022-10-16T07:02:02;1.75;;;1.65;;
9838;SDS011;4958;48.150;11.506;2022-10-16T07:04:30;2.17;;;1.80;;
9838;SDS011;4958;48.150;11.506;2022-10-16T07:06:56;3.05;;;1.80;;
9838;SDS011;4958;48.150;11.506;2022-10-16T07:09:23;4.13;;;2.05;;
9838;SDS011;4958;48.150;11.506;2022-10-16T07:11:49;2.10;;;1.75;;
9838;SDS011;4958;48.150;11.506;2022-10-16T07:14:16;2.35;;;1.80;;
9838;SDS011;4958;48.150;11.506;2022-10-16T07:16:44;2.72;;;1.92;;
9838;SDS011;4958;48.150;11.506;2022-10-16T07:19:11;2.05;;;1.80;;
9838;SDS011;4958;48.150;11.506;2022-10-16T07:21:41;2.03;;;1.80;;
9838;SDS011;4958;48.150;11.506;2022-10-16T07:24:10;3.45;;;3.15;;
9838;SDS011;4958;48.150;11.506;2022-10-16T07:26:39;4.93;;;4.05;;
9838;SDS011;4958;48.150;11.506;2022-10-16T07:29:06;10.32;;;9.35;;
9838;SDS011;4958;48.150;11.506;2022-10-16T07:31:33;12.30;;;11.00;;
9838;SDS011;4958;48.150;11.506;2022-10-16T07:33:59;4.25;;;3.55;;
9838;SDS011;4958;48.150;11.506;2022-10-16T07:36:26;4.10;;;2.65;;
9838;SDS011;4958;48.150;11.506;2022-10-16T07:38:54;3.95;;;2.70;;
9838;SDS011;4958;48.150;11.506;2022-10-16T07:41:21;4.32;;;2.30;;
9838;SDS011;4958;48.150;11.506;2022-10-16T07:43:47;3.33;;;2.08;;
9838;SDS011;4958;48.150;11.506;2022-10-16T07:46:15;2.03;;;1.85;;
9838;SDS011;4958;48.150;11.506;2022-10-16T07:48:42;3.65;;;1.90;;
9838;SDS011;4958;48.150;11.506;2022-10-16T07:51:12;2.20;;;2.00;;
9838;SDS011;4958;48.150;11.506;2022-10-16T07:53:40;3.33;;;2.10;;
9838;SDS011;4958;48.150;11.506;2022-10-16T07:56:07;3.70;;;2.28;;
9838;SDS011;4958;48.150;11.506;2022-10-16T07:58:35;3.15;;;2.20;;
9838;SDS011;4958;48.150;11.506;2022-10-16T08:01:03;2.88;;;2.03;;
9838;SDS011;4958;48.150;11.506;2022-10-16T08:03:30;2.20;;;2.00;;
9838;SDS011;4958;48.150;11.506;2022-10-16T08:05:57;4.05;;;2.50;;
9838;SDS011;4958;48.150;11.506;2022-10-16T08:08:24;2.40;;;2.20;;
9838;SDS011;4958;48.150;11.506;2022-10-16T08:10:51;3.47;;;2.10;;
9838;SDS011;4958;48.150;11.506;2022-10-16T08:13:19;4.38;;;2.95;;
9838;SDS011;4958;48.150;11.506;2022-10-16T08:15:46;2.53;;;2.33;;
9838;SDS011;4958;48.150;11.506;2022-10-16T08:18:12;2.38;;;2.00;;
9838;SDS011;4958;48.150;11.506;2022-10-16T08:20:40;2.88;;;2.15;;
9838;SDS011;4958;48.150;11.506;2022-10-16T08:23:08;2.08;;;1.88;;
9838;SDS011;4958;48.150;11.506;2022-10-16T08:25:36;2.45;;;2.05;;
9838;SDS011;4958;48.150;11.506;2022-10-16T08:28:03;2.17;;;1.98;;
9838;SDS011;4958;48.150;11.506;2022-10-16T08:30:32;4.28;;;1.67;;
9838;SDS011;4958;48.150;11.506;2022-10-16T08:32:59;2.22;;;1.80;;
9838;SDS011;4958;48.150;11.506;2022-10-16T08:35:26;1.90;;;1.65;;
9838;SDS011;4958;48.150;11.506;2022-10-16T08:37:52;3.72;;;1.80;;
9838;SDS011;4958;48.150;11.506;2022-10-16T08:40:19;3.15;;;2.13;;
9838;SDS011;4958;48.150;11.506;2022-10-16T08:45:49;2.03;;;1.75;;
9838;SDS011;4958;48.150;11.506;2022-10-16T08:48:33;1.75;;;1.65;;
9838;SDS011;4958;48.150;11.506;2022-10-16T08:51:03;3.15;;;1.67;;
9838;SDS011;4958;48.150;11.506;2022-10-16T08:53:31;2.08;;;1.70;;
9838;SDS011;4958;48.150;11.506;2022-10-16T08:56:09;1.85;;;1.75;;
9838;SDS011;4958;48.150;11.506;2022-10-16T08:58:35;2.03;;;1.70;;
9838;SDS011;4958;48.150;11.506;2022-10-16T09:01:03;1.92;;;1.73;;
9838;SDS011;4958;48.150;11.506;2022-10-16T09:03:41;2.42;;;2.10;;
9838;SDS011;4958;48.150;11.506;2022-10-16T09:09:15;2.55;;;1.83;;
9838;SDS011;4958;48.150;11.506;2022-10-16T09:11:52;1.70;;;1.60;;
9838;SDS011;4958;48.150;11.506;2022-10-16T09:14:31;1.85;;;1.75;;
9838;SDS011;4958;48.150;11.506;2022-10-16T09:17:18;2.72;;;2.08;;
9838;SDS011;4958;48.150;11.506;2022-10-16T09:19:54;2.35;;;1.77;;
9838;SDS011;4958;48.150;11.506;2022-10-16T09:22:29;2.22;;;1.50;;
9838;SDS011;4958;48.150;11.506;2022-10-16T09:24:59;1.73;;;1.52;;
9838;SDS011;4958;48.150;11.506;2022-10-16T09:27:36;1.95;;;1.73;;
9838;SDS011;4958;48.150;11.506;2022-10-16T09:30:06;1.52;;;1.42;;
9838;SDS011;4958;48.150;11.506;2022-10-16T09:32:39;2.47;;;1.60;;
9838;SDS011;4958;48.150;11.506;2022-10-16T09:35:11;1.70;;;1.60;;
9838;SDS011;4958;48.150;11.506;2022-10-16T09:37:41;2.05;;;1.85;;
9838;SDS011;4958;48.150;11.506;2022-10-16T09:40:12;3.13;;;1.90;;
9838;SDS011;4958;48.150;11.506;2022-10-16T09:42:39;1.70;;;1.60;;
9838;SDS011;4958;48.150;11.506;2022-10-16T09:45:19;1.75;;;1.65;;
9838;SDS011;4958;48.150;11.506;2022-10-16T09:47:49;1.73;;;1.63;;
9838;SDS011;4958;48.150;11.506;2022-10-16T09:50:20;1.90;;;1.80;;
9838;SDS011;4958;48.150;11.506;2022-10-16T09:52:49;1.90;;;1.80;;
9838;SDS011;4958;48.150;11.506;2022-10-16T09:55:16;2.00;;;1.80;;
9838;SDS011;4958;48.150;11.506;2022-10-16T09:57:49;2.05;;;1.92;;
9838;SDS011;4958;48.150;11.506;2022-10-16T10:00:16;1.95;;;1.85;;
9838;SDS011;4958;48.150;11.506;2022-10-16T10:02:44;1.88;;;1.77;;
9838;SDS011;4958;48.150;11.506;2022-10-16T10:05:18;2.22;;;1.80;;
9838;SDS011;4958;48.150;11.506;2022-10-16T10:07:52;2.35;;;1.80;;
9838;SDS011;4958;48.150;11.506;2022-10-16T10:10:22;3.40;;;1.67;;
9838;SDS011;4958;48.150;11.506;2022-10-16T10:12:50;2.55;;;1.73;;
9838;SDS011;4958;48.150;11.506;2022-10-16T10:15:16;2.08;;;1.77;;
9838;SDS011;4958;48.150;11.506;2022-10-16T10:17:46;2.10;;;1.67;;
9838;SDS011;4958;48.150;11.506;2022-10-16T10:20:25;1.80;;;1.60;;
9838;SDS011;4958;48.150;11.506;2022-10-16T10:22:54;1.85;;;1.50;;
9838;SDS011;4958;48.150;11.506;2022-10-16T10:28:28;1.70;;;1.50;;
9838;SDS011;4958;48.150;11.506;2022-10-16T10:31:09;1.52;;;1.40;;
9838;SDS011;4958;48.150;11.506;2022-10-16T10:33:43;1.60;;;1.50;;
9838;SDS011;4958;48.150;11.506;2022-10-16T10:39:00;1.30;;;1.20;;
9838;SDS011;4958;48.150;11.506;2022-10-16T10:44:37;1.60;;;1.50;;
9838;SDS011;4958;48.150;11.506;2022-10-16T10:47:20;2.03;;;1.60;;
9838;SDS011;4958;48.150;11.506;2022-10-16T10:50:00;4.05;;;1.20;;
9838;SDS011;4958;48.150;11.506;2022-10-16T10:52:37;1.50;;;1.40;;
9838;SDS011;4958;48.150;11.506;2022-10-16T10:55:10;3.28;;;3.00;;
9838;SDS011;4958;48.150;11.506;2022-10-16T10:57:51;2.45;;;2.25;;
9838;SDS011;4958;48.150;11.506;2022-10-16T11:00:28;2.28;;;1.80;;
9838;SDS011;4958;48.150;11.506;2022-10-16T11:03:05;1.45;;;1.30;;
9838;SDS011;4958;48.150;11.506;2022-10-16T11:05:47;1.30;;;1.20;;
9838;SDS011;4958;48.150;11.506;2022-10-16T11:08:18;1.42;;;1.27;;
9838;SDS011;4958;48.150;11.506;2022-10-16T11:10:50;2.00;;;1.35;;
9838;SDS011;4958;48.150;11.506;2022-10-16T11:13:21;2.22;;;1.38;;
9838;SDS011;4958;48.150;11.506;2022-10-16T11:15:56;2.47;;;1.23;;
9838;SDS011;4958;48.150;11.506;2022-10-16T11:18:26;1.38;;;1.27;;
9838;SDS011;4958;48.150;11.506;2022-10-16T11:20:57;15.43;;;13.95;;
9838;SDS011;4958;48.150;11.506;2022-10-16T11:23:30;10.00;;;9.10;;
9838;SDS011;4958;48.150;11.506;2022-10-16T11:26:04;2.00;;;1.90;;
9838;SDS011;4958;48.150;11.506;2022-10-16T11:28:39;1.67;;;1.40;;
9838;SDS011;4958;48.150;11.506;2022-10-16T11:31:12;1.40;;;1.30;;
9838;SDS011;4958;48.150;11.506;2022-10-16T11:33:42;1.00;;;0.98;;
9838;SDS011;4958;48.150;11.506;2022-10-16T11:36:15;0.90;;;0.90;;
9838;SDS011;4958;48.150;11.506;2022-10-16T11:38:48;2.45;;;1.20;;
9838;SDS011;4958;48.150;11.506;2022-10-16T11:41:22;2.28;;;1.33;;
9838;SDS011;4958;48.150;11.506;2022-10-16T11:43:56;1.80;;;1.23;;
9838;SDS011;4958;48.150;11.506;2022-10-16T11:46:32;1.10;;;1.00;;
9838;SDS011;4958;48.150;11.506;2022-10-16T11:49:00;1.13;;;0.90;;
9838;SDS011;4958;48.150;11.506;2022-10-16T11:51:36;1.13;;;1.10;;
9838;SDS011;4958;48.150;11.506;2022-10-16T11:54:08;1.98;;;1.10;;
9838;SDS011;4958;48.150;11.506;2022-10-16T11:56:46;1.10;;;1.00;;
9838;SDS011;4958;48.150;11.506;2022-10-16T11:59:18;1.63;;;1.05;;
9838;SDS011;4958;48.150;11.506;2022-10-16T12:01:52;1.20;;;1.10;;
9838;SDS011;4958;48.150;11.506;2022-10-16T12:04:25;2.38;;;1.40;;
9838;SDS011;4958;48.150;11.506;2022-10-16T12:06:59;2.97;;;1.27;;
9838;SDS011;4958;48.150;11.506;2022-10-16T12:09:34;1.75;;;1.20;;
9838;SDS011;4958;48.150;11.506;2022-10-16T12:12:03;2.63;;;1.15;;
9838;SDS011;4958;48.150;11.506;2022-10-16T12:14:35;1.25;;;1.15;;
9838;SDS011;4958;48.150;11.506;2022-10-16T12:19:58;1.55;;;1.20;;
9838;SDS011;4958;48.150;11.506;2022-10-16T12:22:28;1.35;;;1.20;;
9838;SDS011;4958;48.150;11.506;2022-10-16T12:24:57;1.35;;;1.25;;
9838;SDS011;4958;48.150;11.506;2022-10-16T12:27:25;1.15;;;1.05;;
9838;SDS011;4958;48.150;11.506;2022-10-16T12:29:55;1.00;;;0.85;;
9838;SDS011;4958;48.150;11.506;2022-10-16T12:32:27;6.18;;;1.38;;
9838;SDS011;4958;48.150;11.506;2022-10-16T12:34:56;2.88;;;1.40;;
9838;SDS011;4958;48.150;11.506;2022-10-16T12:37:25;1.38;;;1.20;;
9838;SDS011;4958;48.150;11.506;2022-10-16T12:39:53;1.40;;;1.20;;
9838;SDS011;4958;48.150;11.506;2022-10-16T12:42:31;2.78;;;1.10;;
9838;SDS011;4958;48.150;11.506;2022-10-16T12:44:59;0.95;;;0.95;;
9838;SDS011;4958;48.150;11.506;2022-10-16T12:47:37;1.50;;;1.10;;
9838;SDS011;4958;48.150;11.506;2022-10-16T12:50:23;2.05;;;1.00;;
9838;SDS011;4958;48.150;11.506;2022-10-16T12:52:51;1.30;;;1.20;;
9838;SDS011;4958;48.150;11.506;2022-10-16T12:55:19;0.80;;;0.80;;
9838;SDS011;4958;48.150;11.506;2022-10-16T12:57:51;0.80;;;0.80;;
9838;SDS011;4958;48.150;11.506;2022-10-16T13:00:32;1.05;;;0.95;;
9838;SDS011;4958;48.150;11.506;2022-10-16T13:03:21;1.58;;;1.15;;
9838;SDS011;4958;48.150;11.506;2022-10-16T13:06:04;0.90;;;0.90;;
9838;SDS011;4958;48.150;11.506;2022-10-16T13:08:45;0.98;;;0.90;;
9838;SDS011;4958;48.150;11.506;2022-10-16T13:11:29;1.00;;;1.00;;
9838;SDS011;4958;48.150;11.506;2022-10-16T13:14:19;0.90;;;0.90;;
9838;SDS011;4958;48.150;11.506;2022-10-16T13:17:00;1.13;;;0.90;;
9838;SDS011;4958;48.150;11.506;2022-10-16T13:19:38;0.70;;;0.70;;
9838;SDS011;4958;48.150;11.506;2022-10-16T13:22:13;0.93;;;0.70;;
9838;SDS011;4958;48.150;11.506;2022-10-16T13:24:51;0.70;;;0.70;;
9838;SDS011;4958;48.150;11.506;2022-10-16T13:27:28;0.80;;;0.80;;
9838;SDS011;4958;48.150;11.506;2022-10-16T13:30:08;1.58;;;0.98;;
9838;SDS011;4958;48.150;11.506;2022-10-16T13:32:39;0.80;;;0.80;;
9838;SDS011;4958;48.150;11.506;2022-10-16T13:35:20;0.85;;;0.80;;
9838;SDS011;4958;48.150;11.506;2022-10-16T13:37:48;2.03;;;0.90;;
9838;SDS011;4958;48.150;11.506;2022-10-16T13:40:18;2.15;;;0.70;;
9838;SDS011;4958;48.150;11.506;2022-10-16T13:42:46;0.60;;;0.60;;
9838;SDS011;4958;48.150;11.506;2022-10-16T13:45:21;2.67;;;0.80;;
9838;SDS011;4958;48.150;11.506;2022-10-16T13:47:50;0.93;;;0.80;;
9838;SDS011;4958;48.150;11.506;2022-10-16T13:50:26;0.85;;;0.73;;
9838;SDS011;4958;48.150;11.506;2022-10-16T13:53:02;1.20;;;0.80;;
9838;SDS011;4958;48.150;11.506;2022-10-16T13:55:29;1.50;;;0.90;;
9838;SDS011;4958;48.150;11.506;2022-10-16T13:58:04;0.98;;;0.80;;
9838;SDS011;4958;48.150;11.506;2022-10-16T14:00:33;1.15;;;0.70;;
9838;SDS011;4958;48.150;11.506;2022-10-16T14:03:01;0.82;;;0.75;;
9838;SDS011;4958;48.150;11.506;2022-10-16T14:05:29;1.80;;;0.82;;
9838;SDS011;4958;48.150;11.506;2022-10-16T14:07:55;1.33;;;0.80;;
9838;SDS011;4958;48.150;11.506;2022-10-16T14:10:24;0.80;;;0.80;;
9838;SDS011;4958;48.150;11.506;2022-10-16T14:12:54;1.55;;;0.80;;
9838;SDS011;4958;48.150;11.506;2022-10-16T14:15:22;1.35;;;0.90;;
9838;SDS011;4958;48.150;11.506;2022-10-16T14:17:50;0.90;;;0.90;;
9838;SDS011;4958;48.150;11.506;2022-10-16T14:20:19;1.20;;;0.90;;
9838;SDS011;4958;48.150;11.506;2022-10-16T14:22:57;0.90;;;0.90;;
9838;SDS011;4958;48.150;11.506;2022-10-16T14:25:27;2.50;;;0.95;;
9838;SDS011;4958;48.150;11.506;2022-10-16T14:27:59;0.80;;;0.80;;
9838;SDS011;4958;48.150;11.506;2022-10-16T14:30:27;2.55;;;0.95;;
9838;SDS011;4958;48.150;11.506;2022-10-16T14:32:57;0.88;;;0.88;;
9838;SDS011;4958;48.150;11.506;2022-10-16T14:35:26;0.95;;;0.90;;
9838;SDS011;4958;48.150;11.506;2022-10-16T14:37:54;0.88;;;0.85;;
9838;SDS011;4958;48.150;11.506;2022-10-16T14:40:23;1.77;;;0.73;;
9838;SDS011;4958;48.150;11.506;2022-10-16T14:42:51;0.60;;;0.60;;
9838;SDS011;4958;48.150;11.506;2022-10-16T14:45:19;1.85;;;0.80;;
9838;SDS011;4958;48.150;11.506;2022-10-16T14:47:48;0.95;;;0.77;;
9838;SDS011;4958;48.150;11.506;2022-10-16T14:50:17;1.60;;;0.90;;
9838;SDS011;4958;48.150;11.506;2022-10-16T14:52:44;1.00;;;1.00;;
9838;SDS011;4958;48.150;11.506;2022-10-16T14:55:10;4.35;;;1.20;;
9838;SDS011;4958;48.150;11.506;2022-10-16T14:57:37;1.17;;;0.88;;
9838;SDS011;4958;48.150;11.506;2022-10-16T15:00:08;1.10;;;1.00;;
9838;SDS011;4958;48.150;11.506;2022-10-16T15:02:39;3.90;;;1.00;;
9838;SDS011;4958;48.150;11.506;2022-10-16T15:05:10;1.00;;;1.00;;
9838;SDS011;4958;48.150;11.506;2022-10-16T15:07:40;1.05;;;0.93;;
9838;SDS011;4958;48.150;11.506;2022-10-16T15:10:08;1.45;;;1.17;;
9838;SDS011;4958;48.150;11.506;2022-10-16T15:12:35;3.42;;;1.25;;
9838;SDS011;4958;48.150;11.506;2022-10-16T15:15:01;1.48;;;1.33;;
9838;SDS011;4958;48.150;11.506;2022-10-16T15:17:28;1.60;;;1.33;;
9838;SDS011;4958;48.150;11.506;2022-10-16T15:19:54;1.83;;;1.73;;
9838;SDS011;4958;48.150;11.506;2022-10-16T15:22:23;1.90;;;1.80;;
9838;SDS011;4958;48.150;11.506;2022-10-16T15:24:51;3.13;;;2.05;;
9838;SDS011;4958;48.150;11.506;2022-10-16T15:27:17;1.92;;;1.83;;
9838;SDS011;4958;48.150;11.506;2022-10-16T15:29:43;2.28;;;1.75;;
9838;SDS011;4958;48.150;11.506;2022-10-16T15:32:10;4.13;;;3.67;;
9838;SDS011;4958;48.150;11.506;2022-10-16T15:34:36;5.05;;;3.85;;